Time;durP1;ratioP1;P1;durP2;ratioP2;P2;SDS_P1;SDS_P2;PMS_P1;PMS_P2;Temp;Humidity;BMP_temperature;BMP_pressure;BME280_temperature;BME280_humidity;BME280_pressure;Samples;Min_cycle;Max_cycle;Signal;HPM_P1;HPM_P2
2022/03/25 00:01:10;;;;;;;76.53;55.40;;;4.90;85.90;;;;;;5012347;28;20037;-41
2022/03/25 00:03:38;;;;;;;83.75;57.60;;;4.90;85.70;;;;;;5011405;28;20025;-41
2022/03/25 00:06:04;;;;;;;79.70;55.70;;;4.90;85.70;;;;;;5011687;28;20141;-42
2022/03/25 00:08:31;;;;;;;84.45;57.28;;;4.90;85.80;;;;;;5013044;28;20065;-41
2022/03/25 00:10:59;;;;;;;85.50;57.80;;;4.80;86.00;;;;;;5012526;28;20037;-40
2022/03/25 00:13:26;;;;;;;89.65;59.13;;;4.90;86.30;;;;;;5012511;28;20168;-41
2022/03/25 00:16:06;;;;;;;84.25;57.95;;;4.90;86.50;;;;;;5010925;28;20045;-42
2022/03/25 00:18:33;;;;;;;86.85;58.55;;;4.90;86.40;;;;;;5012430;28;20030;-40
2022/03/25 00:21:00;;;;;;;85.60;60.47;;;4.90;86.30;;;;;;5010887;28;20049;-40
2022/03/25 00:23:28;;;;;;;88.53;57.88;;;4.90;86.30;;;;;;5010798;28;20033;-40
2022/03/25 00:25:57;;;;;;;92.18;59.90;;;4.90;86.50;;;;;;5011851;28;20034;-42
2022/03/25 00:28:26;;;;;;;90.40;60.13;;;4.90;86.60;;;;;;5012462;28;20046;-41
2022/03/25 00:30:52;;;;;;;84.07;56.08;;;5.00;86.50;;;;;;5012002;28;20279;-40
2022/03/25 00:33:20;;;;;;;85.18;57.85;;;5.00;86.60;;;;;;5011932;28;20108;-41
2022/03/25 00:35:56;;;;;;;92.15;59.00;;;5.00;86.50;;;;;;5010531;28;20106;-42
2022/03/25 00:38:23;;;;;;;87.90;57.35;;;5.00;86.50;;;;;;5012022;28;20030;-40
2022/03/25 00:40:50;;;;;;;79.25;55.95;;;5.00;86.40;;;;;;5011172;28;20033;-40
2022/03/25 00:43:20;;;;;;;79.80;53.45;;;5.00;86.20;;;;;;5010940;28;20050;-40
2022/03/25 00:45:46;;;;;;;75.10;52.40;;;5.00;86.20;;;;;;5011119;28;20115;-41
2022/03/25 00:48:14;;;;;;;83.85;55.20;;;4.90;86.10;;;;;;5010241;28;20088;-40
2022/03/25 00:50:41;;;;;;;82.20;54.58;;;4.90;86.10;;;;;;5011356;28;20104;-40
2022/03/25 00:53:11;;;;;;;71.57;50.40;;;4.90;86.10;;;;;;5011582;28;20061;-40
2022/03/25 00:55:38;;;;;;;75.43;53.42;;;4.90;86.20;;;;;;5010790;28;20069;-40
2022/03/25 00:58:04;;;;;;;86.75;52.88;;;4.90;86.10;;;;;;5010979;28;20447;-41
2022/03/25 01:00:34;;;;;;;80.93;51.20;;;4.90;86.30;;;;;;5011116;28;20044;-41
2022/03/25 01:03:04;;;;;;;79.22;51.80;;;4.90;86.30;;;;;;5011280;28;20039;-42
2022/03/25 01:05:31;;;;;;;77.85;51.42;;;4.90;86.20;;;;;;5010944;28;20025;-41
2022/03/25 01:07:58;;;;;;;74.70;51.38;;;4.90;86.30;;;;;;5011064;28;20037;-41
2022/03/25 01:10:27;;;;;;;75.38;50.42;;;4.90;86.30;;;;;;5003635;28;20436;-41
2022/03/25 01:12:53;;;;;;;68.00;48.33;;;4.90;86.30;;;;;;5011773;28;20104;-41
2022/03/25 01:15:20;;;;;;;71.15;48.38;;;4.90;86.30;;;;;;5011361;28;20073;-41
2022/03/25 01:17:48;;;;;;;66.15;48.45;;;4.90;86.40;;;;;;5011375;28;20046;-41
2022/03/25 01:20:17;;;;;;;68.30;44.15;;;4.80;86.40;;;;;;5011114;28;20030;-41
2022/03/25 01:22:46;;;;;;;69.13;45.75;;;4.80;86.50;;;;;;5011819;28;20362;-41
2022/03/25 01:25:14;;;;;;;66.82;44.55;;;4.80;86.50;;;;;;5010844;28;20455;-42
2022/03/25 01:27:41;;;;;;;67.00;43.92;;;4.80;86.60;;;;;;5010055;28;20422;-42
2022/03/25 01:30:08;;;;;;;68.03;46.92;;;4.80;86.60;;;;;;5010028;28;20113;-41
2022/03/25 01:32:35;;;;;;;68.88;46.40;;;4.90;86.70;;;;;;5010101;28;20041;-40
2022/03/25 01:35:00;;;;;;;70.57;48.20;;;4.90;86.70;;;;;;5010826;28;20467;-42
2022/03/25 01:37:29;;;;;;;70.80;46.35;;;4.90;86.80;;;;;;5010292;28;20084;-41
2022/03/25 01:39:57;;;;;;;72.93;47.67;;;4.90;86.90;;;;;;5010833;28;20060;-42
2022/03/25 01:42:34;;;;;;;65.03;46.17;;;4.80;86.80;;;;;;5010208;28;20033;-43
2022/03/25 01:45:11;;;;;;;69.10;46.42;;;4.90;87.00;;;;;;5010387;28;20034;-42
2022/03/25 01:47:38;;;;;;;63.78;43.70;;;4.90;86.90;;;;;;5010134;28;20078;-40
2022/03/25 01:50:22;;;;;;;64.47;45.78;;;4.90;87.00;;;;;;5009440;28;20747;-42
2022/03/25 01:52:51;;;;;;;59.45;43.45;;;4.90;86.90;;;;;;5010043;28;20518;-40
2022/03/25 01:55:21;;;;;;;62.25;40.78;;;4.80;86.80;;;;;;4998425;28;20054;-40
2022/03/25 01:57:48;;;;;;;;;;;4.80;86.90;;;;;;4994115;28;20073;-41
2022/03/25 02:00:19;;;;;;;65.15;42.72;;;4.80;86.90;;;;;;4990237;28;19910;-41
2022/03/25 02:02:45;;;;;;;57.17;39.92;;;4.80;86.80;;;;;;5007695;28;20018;-40
2022/03/25 02:05:11;;;;;;;60.10;40.55;;;4.80;86.80;;;;;;5009386;28;20037;-40
2022/03/25 02:07:38;;;;;;;60.03;41.58;;;4.80;86.70;;;;;;5010013;28;20105;-41
2022/03/25 02:10:05;;;;;;;61.40;43.35;;;4.80;86.80;;;;;;5010390;28;20110;-40
2022/03/25 02:12:35;;;;;;;60.42;41.38;;;4.70;86.80;;;;;;5010296;28;20022;-40
2022/03/25 02:15:05;;;;;;;50.15;36.72;;;4.70;86.80;;;;;;5009302;28;20034;-42
2022/03/25 02:17:31;;;;;;;51.97;39.17;;;4.70;86.80;;;;;;5008895;28;20509;-40
2022/03/25 02:19:57;;;;;;;55.70;39.58;;;4.70;86.80;;;;;;5010436;28;20021;-40
2022/03/25 02:22:24;;;;;;;58.05;40.42;;;4.70;86.70;;;;;;5010390;28;20020;-40
2022/03/25 02:24:51;;;;;;;51.03;37.55;;;4.70;86.70;;;;;;5010046;28;20038;-40
2022/03/25 02:27:17;;;;;;;60.65;40.78;;;4.70;86.60;;;;;;5008795;28;20109;-41
2022/03/25 02:29:44;;;;;;;56.08;39.38;;;4.70;86.50;;;;;;5010169;28;20110;-40
2022/03/25 02:32:14;;;;;;;55.90;39.28;;;4.70;86.70;;;;;;5009621;28;20083;-40
2022/03/25 02:34:39;;;;;;;55.65;37.90;;;4.70;86.70;;;;;;5009554;28;20464;-40
2022/03/25 02:37:07;;;;;;;51.85;38.88;;;4.70;86.80;;;;;;5009953;28;20065;-40
2022/03/25 02:39:34;;;;;;;53.55;40.08;;;4.70;86.70;;;;;;5010050;28;20030;-40
2022/03/25 02:42:04;;;;;;;53.75;39.17;;;4.70;86.70;;;;;;4992335;28;20025;-41
2022/03/25 02:44:29;;;;;;;;;;;4.60;86.40;;;;;;5010379;28;20054;-41
2022/03/25 02:46:59;;;;;;;55.20;37.40;;;4.60;86.30;;;;;;5009845;28;19956;-41
2022/03/25 02:49:25;;;;;;;53.97;36.70;;;4.50;86.20;;;;;;5009965;28;20056;-41
2022/03/25 02:51:52;;;;;;;52.25;38.38;;;4.40;86.00;;;;;;5009057;28;20037;-40
2022/03/25 02:54:20;;;;;;;54.42;36.67;;;4.40;86.00;;;;;;5008589;28;20129;-42
2022/03/25 02:56:48;;;;;;;51.30;36.20;;;4.30;86.00;;;;;;5009688;28;20033;-41
2022/03/25 02:59:16;;;;;;;49.60;36.05;;;4.30;86.20;;;;;;5009878;28;20033;-40
2022/03/25 03:01:44;;;;;;;50.83;36.13;;;4.20;86.10;;;;;;5009369;28;20125;-40
2022/03/25 03:04:11;;;;;;;48.05;35.08;;;4.20;86.10;;;;;;5009530;28;20419;-40
2022/03/25 03:06:38;;;;;;;51.70;36.22;;;4.10;86.00;;;;;;5008143;28;20112;-40
2022/03/25 03:09:05;;;;;;;51.20;37.25;;;4.00;86.00;;;;;;5009418;28;20062;-40
2022/03/25 03:11:32;;;;;;;53.53;38.85;;;3.90;86.10;;;;;;5009131;28;20057;-42
2022/03/25 03:13:59;;;;;;;58.15;39.22;;;3.90;86.30;;;;;;5009915;28;20030;-40
2022/03/25 03:16:24;;;;;;;55.17;38.00;;;3.90;86.40;;;;;;5009204;28;20517;-42
2022/03/25 03:18:51;;;;;;;53.42;38.40;;;3.90;86.50;;;;;;5010169;28;20022;-40
2022/03/25 03:21:17;;;;;;;58.42;38.17;;;3.80;86.30;;;;;;5008522;28;20037;-41
2022/03/25 03:23:45;;;;;;;55.08;38.97;;;3.80;86.40;;;;;;5010142;28;20030;-40
2022/03/25 03:26:11;;;;;;;59.00;38.92;;;3.70;86.70;;;;;;5009533;28;20033;-40
2022/03/25 03:28:39;;;;;;;52.47;37.08;;;3.70;87.20;;;;;;5009890;28;20486;-40
2022/03/25 03:31:06;;;;;;;55.15;38.00;;;3.80;87.30;;;;;;5009435;28;20045;-41
2022/03/25 03:33:33;;;;;;;57.22;39.72;;;3.80;87.30;;;;;;5009471;28;20049;-40
2022/03/25 03:36:00;;;;;;;54.33;39.42;;;3.80;87.30;;;;;;5009334;28;20499;-40
2022/03/25 03:38:27;;;;;;;60.53;38.97;;;3.90;87.10;;;;;;5009824;28;20048;-40
2022/03/25 03:40:52;;;;;;;57.00;39.88;;;3.90;86.80;;;;;;5009441;28;20513;-40
2022/03/25 03:43:20;;;;;;;62.13;39.83;;;3.80;86.70;;;;;;5009657;28;20034;-43
2022/03/25 03:45:52;;;;;;;57.67;39.70;;;3.70;86.90;;;;;;5008144;28;20053;-41
2022/03/25 03:48:19;;;;;;;56.22;38.20;;;3.70;87.30;;;;;;5009597;28;20475;-42
2022/03/25 03:50:50;;;;;;;54.72;38.67;;;3.70;87.30;;;;;;5009567;28;20039;-42
2022/03/25 03:53:16;;;;;;;50.80;36.08;;;3.70;87.20;;;;;;5009284;28;20025;-45
2022/03/25 03:55:43;;;;;;;52.60;36.72;;;3.80;87.00;;;;;;5011501;28;20320;-41
2022/03/25 03:58:09;;;;;;;51.40;36.55;;;3.70;86.90;;;;;;5012275;28;20026;-41
2022/03/25 04:00:37;;;;;;;54.08;38.22;;;3.70;87.00;;;;;;5011923;28;20030;-44
2022/03/25 04:03:06;;;;;;;50.10;35.53;;;3.70;86.90;;;;;;5012962;28;20488;-40
2022/03/25 04:05:34;;;;;;;50.27;36.17;;;3.70;87.00;;;;;;5012448;28;20041;-44
2022/03/25 04:08:02;;;;;;;48.25;34.20;;;3.70;86.90;;;;;;5012990;28;20057;-41
2022/03/25 04:10:29;;;;;;;48.33;33.92;;;3.60;87.00;;;;;;5012561;28;20337;-40
2022/03/25 04:12:55;;;;;;;51.45;35.13;;;3.60;86.90;;;;;;5011328;28;20127;-41
2022/03/25 04:15:22;;;;;;;48.00;34.60;;;3.60;86.90;;;;;;5011938;28;20026;-40
2022/03/25 04:17:52;;;;;;;43.10;33.45;;;3.60;86.90;;;;;;5011386;28;20136;-40
2022/03/25 04:20:19;;;;;;;45.65;32.75;;;3.60;86.90;;;;;;5012348;28;20317;-40
2022/03/25 04:22:47;;;;;;;43.03;31.73;;;3.60;86.90;;;;;;5012347;28;20109;-40
2022/03/25 04:25:14;;;;;;;46.42;32.67;;;3.60;86.70;;;;;;5012447;28;20459;-41
2022/03/25 04:27:58;;;;;;;46.60;31.48;;;3.60;86.80;;;;;;5011291;28;20545;-40
2022/03/25 04:30:35;;;;;;;46.63;32.67;;;3.50;86.40;;;;;;5010830;28;20052;-40
2022/03/25 04:33:03;;;;;;;46.25;31.45;;;3.50;86.50;;;;;;5010893;28;20572;-41
2022/03/25 04:35:30;;;;;;;41.30;31.85;;;3.50;86.60;;;;;;5011267;28;20048;-40
2022/03/25 04:37:57;;;;;;;51.33;34.60;;;3.40;86.40;;;;;;4994420;28;20418;-40
2022/03/25 04:40:28;;;;;;;42.88;30.45;;;3.40;86.40;;;;;;5011580;28;20057;-40
2022/03/25 04:42:58;;;;;;;46.80;34.22;;;3.30;86.60;;;;;;5010894;28;20034;-40
2022/03/25 04:45:27;;;;;;;43.63;31.23;;;3.40;86.60;;;;;;4994532;28;20483;-41
2022/03/25 04:48:00;;;;;;;45.30;31.67;;;3.30;86.60;;;;;;5011144;28;20548;-40
2022/03/25 04:50:32;;;;;;;47.53;33.65;;;3.30;86.80;;;;;;5010646;28;20034;-40
2022/03/25 04:52:59;;;;;;;48.05;35.20;;;3.30;86.80;;;;;;5010522;28;20029;-41
2022/03/25 04:55:24;;;;;;;45.75;32.67;;;3.30;86.70;;;;;;5011457;28;20353;-40
2022/03/25 04:57:51;;;;;;;43.75;31.48;;;3.30;86.70;;;;;;5010321;28;20036;-41
2022/03/25 05:00:18;;;;;;;43.92;32.15;;;3.30;86.80;;;;;;5011230;28;20096;-41
2022/03/25 05:02:46;;;;;;;43.28;30.58;;;3.30;86.80;;;;;;5011137;28;20028;-40
2022/03/25 05:05:14;;;;;;;49.58;35.20;;;3.30;86.80;;;;;;5010781;28;20163;-42
2022/03/25 05:07:46;;;;;;;47.70;32.53;;;3.30;86.80;;;;;;5011003;28;20038;-41
2022/03/25 05:10:14;;;;;;;49.25;33.58;;;3.20;86.60;;;;;;5010994;28;20092;-42
2022/03/25 05:12:44;;;;;;;49.50;34.88;;;3.20;86.90;;;;;;4993202;28;20057;-44
2022/03/25 05:15:11;;;;;;;49.03;34.35;;;3.20;87.10;;;;;;5009550;28;20058;-43
2022/03/25 05:17:52;;;;;;;48.28;34.78;;;3.20;87.10;;;;;;5009472;28;20122;-41
2022/03/25 05:20:25;;;;;;;49.38;32.25;;;3.30;87.20;;;;;;5009598;28;20040;-42
2022/03/25 05:22:56;;;;;;;48.70;35.33;;;3.30;86.90;;;;;;5009922;28;20057;-40
2022/03/25 05:25:24;;;;;;;50.88;35.03;;;3.30;86.90;;;;;;4991507;28;20026;-42
2022/03/25 05:28:09;;;;;;;51.45;35.78;;;3.40;87.00;;;;;;4995872;28;20060;-41
2022/03/25 05:30:35;;;;;;;48.50;35.72;;;3.40;87.20;;;;;;5010002;28;20038;-42
2022/03/25 05:33:02;;;;;;;54.90;35.35;;;3.50;87.30;;;;;;5011156;28;20080;-41
2022/03/25 05:35:29;;;;;;;50.17;35.85;;;3.50;87.10;;;;;;5009733;28;20034;-42
2022/03/25 05:37:57;;;;;;;50.20;35.90;;;3.60;87.10;;;;;;5009994;28;20436;-41
2022/03/25 05:40:25;;;;;;;45.28;35.67;;;3.60;87.10;;;;;;5009238;28;20034;-41
2022/03/25 05:42:53;;;;;;;48.03;35.60;;;3.60;87.00;;;;;;5009649;28;20023;-42
2022/03/25 05:45:21;;;;;;;51.60;36.67;;;3.70;87.00;;;;;;4993147;28;20033;-41
2022/03/25 05:47:49;;;;;;;51.30;37.30;;;3.70;87.00;;;;;;4992945;28;20048;-42
2022/03/25 05:50:18;;;;;;;56.38;37.83;;;3.80;86.90;;;;;;5008801;28;20038;-41
2022/03/25 05:52:43;;;;;;;51.53;37.90;;;3.80;86.90;;;;;;5008438;28;20034;-42
2022/03/25 05:55:13;;;;;;;50.72;37.33;;;3.90;87.10;;;;;;5010273;28;20062;-41
2022/03/25 05:57:39;;;;;;;49.17;36.95;;;3.90;87.20;;;;;;5010040;28;20014;-40
2022/03/25 06:00:11;;;;;;;51.80;37.00;;;4.00;87.20;;;;;;5010087;28;20033;-43
2022/03/25 06:02:36;;;;;;;49.10;37.47;;;4.10;87.20;;;;;;5010384;28;20072;-41
2022/03/25 06:05:04;;;;;;;54.65;39.30;;;4.20;87.10;;;;;;5010588;28;20033;-41
2022/03/25 06:07:42;;;;;;;51.80;36.53;;;4.20;87.10;;;;;;5009962;28;20470;-42
2022/03/25 06:10:11;;;;;;;55.35;38.25;;;4.30;87.10;;;;;;5008562;28;20120;-41
2022/03/25 06:12:39;;;;;;;52.45;37.83;;;4.40;87.00;;;;;;4993363;28;20038;-40
2022/03/25 06:15:18;;;;;;;51.15;36.83;;;4.50;87.00;;;;;;5008620;28;20041;-42
2022/03/25 06:17:49;;;;;;;54.28;39.00;;;4.50;86.80;;;;;;5009649;28;20367;-40
2022/03/25 06:20:23;;;;;;;48.83;36.40;;;4.50;86.60;;;;;;4992621;28;20030;-41
2022/03/25 06:22:50;;;;;;;49.22;36.55;;;4.60;86.70;;;;;;4993422;28;20057;-41
2022/03/25 06:25:19;;;;;;;44.15;35.78;;;4.60;86.60;;;;;;5009072;28;20135;-41
2022/03/25 06:27:46;;;;;;;48.72;37.10;;;4.60;86.30;;;;;;5009189;28;20037;-40
2022/03/25 06:30:16;;;;;;;54.45;39.30;;;4.70;86.40;;;;;;5006877;28;20038;-41
2022/03/25 06:32:42;;;;;;;57.03;40.53;;;4.60;86.80;;;;;;5005354;28;20033;-41
2022/03/25 06:35:09;;;;;;;62.65;42.10;;;4.70;87.40;;;;;;5008133;28;20084;-40
2022/03/25 06:37:36;;;;;;;64.60;43.80;;;4.90;87.70;;;;;;5007749;28;20088;-40
2022/03/25 06:40:07;;;;;;;65.63;42.95;;;5.00;88.00;;;;;;4991606;28;20033;-40
2022/03/25 06:42:39;;;;;;;56.92;40.05;;;5.10;88.20;;;;;;5009346;28;20069;-40
2022/03/25 06:45:09;;;;;;;57.60;42.88;;;5.20;88.30;;;;;;5009554;28;20038;-40
2022/03/25 06:47:35;;;;;;;52.15;40.70;;;5.40;88.30;;;;;;5007413;28;20166;-42
2022/03/25 06:50:03;;;;;;;51.85;40.83;;;5.60;88.30;;;;;;5007186;28;20034;-40
2022/03/25 06:52:31;;;;;;;59.63;42.30;;;5.80;88.30;;;;;;5009062;28;20052;-40
2022/03/25 06:54:58;;;;;;;62.15;42.17;;;5.90;88.10;;;;;;5009358;28;20361;-40
2022/03/25 06:57:25;;;;;;;57.13;40.90;;;6.10;88.10;;;;;;5008978;28;20418;-41
2022/03/25 06:59:52;;;;;;;50.20;38.53;;;6.20;87.80;;;;;;5009372;28;20081;-40
2022/03/25 07:02:20;;;;;;;51.60;38.78;;;6.40;87.70;;;;;;5008178;28;20034;-40
2022/03/25 07:04:47;;;;;;;50.42;40.13;;;6.50;87.70;;;;;;5008897;28;20030;-40
2022/03/25 07:07:18;;;;;;;54.63;41.60;;;6.70;87.60;;;;;;5008211;28;20363;-41
2022/03/25 07:09:43;;;;;;;56.88;41.28;;;6.90;87.60;;;;;;5006907;28;20034;-43
2022/03/25 07:12:12;;;;;;;60.55;43.45;;;7.00;87.70;;;;;;5008306;28;20026;-41
2022/03/25 07:14:38;;;;;;;59.70;44.05;;;7.10;87.70;;;;;;5008645;28;20036;-40
2022/03/25 07:17:06;;;;;;;58.53;42.25;;;7.30;87.80;;;;;;5006080;28;20050;-40
2022/03/25 07:19:34;;;;;;;58.90;43.22;;;7.40;87.60;;;;;;5005766;28;20079;-42
2022/03/25 07:22:02;;;;;;;59.75;42.17;;;7.60;87.40;;;;;;5008594;28;20030;-40
2022/03/25 07:24:29;;;;;;;51.50;40.40;;;7.60;86.70;;;;;;5008169;28;20030;-40
2022/03/25 07:26:58;;;;;;;51.05;39.65;;;7.70;85.90;;;;;;5008127;28;20029;-43
2022/03/25 07:29:28;;;;;;;54.25;40.85;;;7.90;85.50;;;;;;5008654;28;20030;-40
2022/03/25 07:31:55;;;;;;;53.38;40.08;;;7.90;85.00;;;;;;5011707;28;20033;-41
2022/03/25 07:34:22;;;;;;;52.75;39.70;;;8.10;84.50;;;;;;5009217;28;20435;-43
2022/03/25 07:36:47;;;;;;;56.35;39.42;;;8.20;84.40;;;;;;5011078;28;20045;-43
2022/03/25 07:39:14;;;;;;;55.72;41.30;;;8.40;84.30;;;;;;5012064;28;20022;-40
2022/03/25 07:41:42;;;;;;;56.45;38.78;;;8.60;83.30;;;;;;5010738;28;20041;-40
2022/03/25 07:44:08;;;;;;;43.53;37.22;;;8.70;82.60;;;;;;5012557;28;20049;-40
2022/03/25 07:46:38;;;;;;;51.55;37.85;;;9.10;81.90;;;;;;5012635;28;20058;-41
2022/03/25 07:49:06;;;;;;;47.22;39.22;;;9.40;80.60;;;;;;5010112;28;20037;-40
2022/03/25 07:51:33;;;;;;;44.35;35.95;;;9.60;79.90;;;;;;5011144;28;20107;-42
2022/03/25 07:53:59;;;;;;;47.35;34.00;;;9.90;78.20;;;;;;5012280;28;20391;-41
2022/03/25 07:56:26;;;;;;;38.58;32.63;;;10.20;76.30;;;;;;5012474;28;20120;-42
2022/03/25 07:58:53;;;;;;;41.72;34.42;;;10.40;75.50;;;;;;5012309;28;20029;-41
2022/03/25 08:01:20;;;;;;;41.80;33.28;;;10.50;75.70;;;;;;5006716;28;20042;-44
2022/03/25 08:03:49;;;;;;;40.65;33.90;;;10.80;74.00;;;;;;5011544;28;20034;-44
2022/03/25 08:06:19;;;;;;;37.72;32.35;;;11.20;73.00;;;;;;5011275;28;20107;-42
2022/03/25 08:08:47;;;;;;;37.30;33.00;;;11.40;71.60;;;;;;5011688;28;20320;-42
2022/03/25 08:11:14;;;;;;;37.70;31.63;;;11.80;70.10;;;;;;4993199;28;20084;-42
2022/03/25 08:13:39;;;;;;;35.10;30.80;;;11.70;68.20;;;;;;5011167;28;20042;-42
2022/03/25 08:16:06;;;;;;;36.95;32.83;;;11.70;67.70;;;;;;5010806;28;20439;-45
2022/03/25 08:18:32;;;;;;;39.35;32.38;;;11.90;67.70;;;;;;5011861;28;20100;-43
2022/03/25 08:20:57;;;;;;;40.15;30.80;;;12.40;66.60;;;;;;5011086;28;20038;-43
2022/03/25 08:29:03;;;;;;;33.58;27.88;;;13.20;62.60;;;;;;5010147;28;20041;-48
2022/03/25 08:31:30;;;;;;;37.05;31.05;;;13.40;61.50;;;;;;4999691;28;20026;-46
2022/03/25 08:33:55;;;;;;;30.50;26.35;;;13.10;60.40;;;;;;5012310;28;20026;-45
2022/03/25 08:36:22;;;;;;;35.95;30.05;;;13.20;59.90;;;;;;5010969;28;20045;-43
2022/03/25 08:38:48;;;;;;;34.63;29.63;;;13.50;60.20;;;;;;5011246;28;20033;-46
2022/03/25 08:41:16;;;;;;;34.15;29.27;;;13.40;60.10;;;;;;5010101;28;20028;-44
2022/03/25 08:43:53;;;;;;;30.02;26.55;;;13.50;60.20;;;;;;5011537;28;20032;-43
2022/03/25 08:46:20;;;;;;;31.25;27.83;;;13.80;58.80;;;;;;5012014;28;20044;-44
2022/03/25 08:48:46;;;;;;;34.83;25.35;;;13.90;55.40;;;;;;5011310;28;20022;-48
2022/03/25 08:51:14;;;;;;;30.98;25.83;;;14.00;53.20;;;;;;4993789;28;20176;-44
2022/03/25 08:53:41;;;;;;;30.75;26.60;;;14.10;53.30;;;;;;4994597;28;20122;-44
2022/03/25 08:56:07;;;;;;;27.38;23.45;;;14.30;52.10;;;;;;5010209;28;20037;-43
2022/03/25 08:58:33;;;;;;;25.52;22.73;;;14.60;53.40;;;;;;5011232;28;20026;-44
2022/03/25 09:01:05;;;;;;;26.45;21.40;;;14.50;49.20;;;;;;5009310;28;20486;-48
2022/03/25 09:03:33;;;;;;;24.05;20.20;;;14.60;48.30;;;;;;5009416;28;20069;-46
2022/03/25 09:06:01;;;;;;;20.25;18.15;;;14.70;45.20;;;;;;5011600;28;20367;-43
2022/03/25 09:08:30;;;;;;;26.33;23.27;;;14.80;45.40;;;;;;5010186;28;20088;-45
2022/03/25 09:10:57;;;;;;;26.45;22.10;;;14.70;45.70;;;;;;5009835;28;20036;-43
2022/03/25 09:13:24;;;;;;;30.70;24.20;;;14.70;46.70;;;;;;5008355;28;20564;-48
2022/03/25 09:15:50;;;;;;;30.30;23.67;;;14.80;46.80;;;;;;5003429;28;20752;-47
2022/03/25 09:18:18;;;;;;;31.27;23.08;;;14.70;46.10;;;;;;4992399;28;20054;-45
2022/03/25 09:20:45;;;;;;;28.00;22.35;;;14.60;46.50;;;;;;5006369;28;20017;-48
2022/03/25 09:23:12;;;;;;;26.63;23.70;;;14.60;47.30;;;;;;5009460;28;20113;-47
2022/03/25 09:25:41;;;;;;;29.15;23.48;;;14.50;46.00;;;;;;5011592;28;20038;-46
2022/03/25 09:28:10;;;;;;;27.65;24.50;;;14.60;46.90;;;;;;5011017;28;20100;-45
2022/03/25 09:30:38;;;;;;;30.10;24.90;;;14.50;45.70;;;;;;5009746;28;20038;-45
2022/03/25 09:33:04;;;;;;;31.13;26.50;;;14.50;44.20;;;;;;5008883;28;20041;-47
2022/03/25 09:35:30;;;;;;;27.63;23.60;;;14.70;47.60;;;;;;5008374;28;20030;-47
2022/03/25 09:37:56;;;;;;;33.13;23.67;;;14.60;42.80;;;;;;5009728;28;20109;-48
2022/03/25 09:40:26;;;;;;;27.35;22.73;;;14.70;42.00;;;;;;5009738;28;20313;-44
2022/03/25 09:42:55;;;;;;;;;;;14.70;42.10;;;;;;4993237;28;20346;-46
2022/03/25 09:45:22;;;;;;;29.33;23.80;;;14.90;39.00;;;;;;5009557;28;19909;-47
2022/03/25 09:47:50;;;;;;;30.92;24.13;;;14.60;42.30;;;;;;5010681;28;20438;-45
2022/03/25 09:50:21;;;;;;;30.77;25.55;;;15.00;42.10;;;;;;4992759;28;20168;-44
2022/03/25 09:52:50;;;;;;;27.75;22.42;;;15.20;41.70;;;;;;5007078;28;20519;-46
2022/03/25 09:55:17;;;;;;;31.25;25.08;;;15.30;39.80;;;;;;5008187;28;20124;-45
2022/03/25 09:57:44;;;;;;;33.33;24.88;;;15.30;40.70;;;;;;5008226;28;20121;-46
2022/03/25 10:00:16;;;;;;;34.35;26.83;;;15.20;42.10;;;;;;5008863;28;20099;-47
2022/03/25 10:02:45;;;;;;;34.85;25.73;;;15.40;43.00;;;;;;5004995;28;20027;-44
2022/03/25 10:05:20;;;;;;;28.40;23.48;;;15.40;42.60;;;;;;5008291;28;20042;-45
2022/03/25 10:07:46;;;;;;;27.77;24.30;;;15.30;38.10;;;;;;5009238;28;20041;-45
2022/03/25 10:10:30;;;;;;;29.83;24.17;;;15.40;41.80;;;;;;5010110;28;20080;-45
2022/03/25 10:13:03;;;;;;;30.98;27.63;;;15.40;42.90;;;;;;5008040;28;20057;-48
2022/03/25 10:15:31;;;;;;;31.05;26.23;;;15.40;44.10;;;;;;4992371;28;20103;-48
2022/03/25 10:18:04;;;;;;;34.35;27.27;;;15.50;44.80;;;;;;5008656;28;20057;-47
2022/03/25 10:20:42;;;;;;;33.40;29.35;;;15.40;44.40;;;;;;5008877;28;20049;-45
2022/03/25 10:23:09;;;;;;;30.25;26.90;;;15.30;46.80;;;;;;4989491;28;20030;-50
2022/03/25 10:25:59;;;;;;;34.42;29.48;;;15.40;46.60;;;;;;5009956;28;20033;-46
2022/03/25 10:28:51;;;;;;;35.40;29.40;;;15.40;46.20;;;;;;5008816;28;20117;-49
2022/03/25 10:31:18;;;;;;;34.03;27.95;;;15.30;47.80;;;;;;5009333;28;20049;-44
2022/03/25 10:33:57;;;;;;;33.45;28.17;;;15.40;47.80;;;;;;5008673;28;20172;-48
2022/03/25 10:36:25;;;;;;;32.65;28.10;;;15.40;47.10;;;;;;5008681;28;20085;-45
2022/03/25 10:38:58;;;;;;;35.88;29.13;;;15.40;46.80;;;;;;5008641;28;20049;-44
2022/03/25 10:41:43;;;;;;;33.47;29.25;;;15.50;47.30;;;;;;5008041;28;20042;-47
2022/03/25 10:44:31;;;;;;;34.45;29.98;;;15.30;48.30;;;;;;4974669;28;20444;-45
2022/03/25 10:46:58;;;;;;;37.85;30.33;;;15.20;48.50;;;;;;5005627;28;20038;-46
2022/03/25 10:49:37;;;;;;;35.58;31.73;;;15.20;50.10;;;;;;5001867;28;20038;-47
2022/03/25 10:52:04;;;;;;;33.58;29.25;;;15.40;50.80;;;;;;5008369;28;20045;-45
2022/03/25 10:54:34;;;;;;;34.97;31.27;;;15.20;49.60;;;;;;5008888;28;20034;-46
2022/03/25 10:57:01;;;;;;;35.60;31.27;;;14.90;49.60;;;;;;5008717;28;20075;-45
2022/03/25 10:59:56;;;;;;;32.75;29.13;;;14.90;52.30;;;;;;5008488;28;20395;-47
2022/03/25 11:02:25;;;;;;;33.83;28.23;;;15.10;50.10;;;;;;5008470;28;20037;-44
2022/03/25 11:04:54;;;;;;;32.65;26.67;;;15.20;52.20;;;;;;5012039;28;20061;-45
2022/03/25 11:07:25;;;;;;;31.08;27.40;;;15.30;48.10;;;;;;5013601;28;20095;-47
2022/03/25 11:09:56;;;;;;;29.55;24.55;;;15.30;49.40;;;;;;5012485;28;20041;-44
2022/03/25 11:12:26;;;;;;;38.55;28.17;;;15.10;48.40;;;;;;5011198;28;20041;-44
2022/03/25 11:14:51;;;;;;;;;;;15.00;50.80;;;;;;5012724;28;20049;-47
2022/03/25 11:17:19;;;;;;;24.25;19.20;;;14.90;44.40;;;;;;5012839;28;19917;-46
2022/03/25 11:19:48;;;;;;;43.38;23.38;;;14.90;41.70;;;;;;5012563;28;20034;-44
2022/03/25 11:22:18;;;;;;;32.80;22.25;;;14.80;39.10;;;;;;4995335;28;20164;-47
2022/03/25 11:24:50;;;;;;;28.20;22.42;;;14.70;40.50;;;;;;5011443;28;20104;-44
2022/03/25 11:27:35;;;;;;;28.20;24.65;;;14.70;41.40;;;;;;5011400;28;20092;-44
2022/03/25 11:30:09;;;;;;;27.65;21.80;;;14.60;40.60;;;;;;5004909;28;20533;-45
2022/03/25 11:32:51;;;;;;;28.15;22.20;;;14.60;38.90;;;;;;5011347;28;20038;-44
2022/03/25 11:35:24;;;;;;;32.58;24.63;;;14.70;39.90;;;;;;4995866;28;20065;-45
2022/03/25 11:38:09;;;;;;;33.95;24.27;;;14.80;40.70;;;;;;5012399;28;20040;-45
2022/03/25 11:40:39;;;;;;;26.17;19.50;;;14.80;41.70;;;;;;5012201;28;20049;-44
2022/03/25 11:43:32;;;;;;;25.85;19.55;;;14.90;37.40;;;;;;5011110;28;20410;-44
2022/03/25 11:46:19;;;;;;;25.00;18.42;;;15.00;37.60;;;;;;5007358;28;20045;-44
2022/03/25 11:48:48;;;;;;;29.70;20.35;;;15.00;36.10;;;;;;5010667;28;20030;-45
2022/03/25 11:51:30;;;;;;;20.30;13.82;;;15.20;38.20;;;;;;5012658;28;20026;-45
2022/03/25 11:53:55;;;;;;;20.73;14.35;;;15.20;36.20;;;;;;5010162;28;20359;-46
2022/03/25 11:56:24;;;;;;;24.98;15.82;;;15.20;33.20;;;;;;5012161;28;20041;-44
2022/03/25 11:59:10;;;;;;;25.20;16.33;;;15.20;34.50;;;;;;5012113;28;20022;-45
2022/03/25 12:01:36;;;;;;;19.65;14.73;;;14.90;36.00;;;;;;4992058;28;20125;-44
2022/03/25 12:04:14;;;;;;;22.02;16.05;;;14.80;35.50;;;;;;5006581;28;20355;-45
2022/03/25 12:07:06;;;;;;;20.95;16.70;;;14.80;35.80;;;;;;5012361;28;20034;-45
2022/03/25 12:09:38;;;;;;;28.83;21.98;;;15.00;38.90;;;;;;5009123;28;20485;-43
2022/03/25 12:12:11;;;;;;;36.00;26.10;;;15.00;40.00;;;;;;5010986;28;20193;-47
2022/03/25 12:15:10;;;;;;;35.03;27.17;;;15.00;43.00;;;;;;5009593;28;20034;-46
2022/03/25 12:17:42;;;;;;;35.85;26.58;;;14.90;44.70;;;;;;5008048;28;20037;-45
2022/03/25 12:20:09;;;;;;;37.50;26.50;;;14.70;43.20;;;;;;5010530;28;20442;-45
2022/03/25 12:22:38;;;;;;;29.60;20.17;;;14.60;41.10;;;;;;5011290;28;20025;-45
2022/03/25 12:25:14;;;;;;;27.80;19.98;;;14.50;40.60;;;;;;5009147;28;20152;-44
2022/03/25 12:27:43;;;;;;;34.60;22.30;;;14.60;41.60;;;;;;5010675;28;20479;-45
2022/03/25 12:30:13;;;;;;;37.05;28.58;;;14.50;41.50;;;;;;5008902;28;20113;-44
2022/03/25 12:32:41;;;;;;;41.67;27.30;;;14.40;43.90;;;;;;5010208;28;20576;-47
2022/03/25 12:35:28;;;;;;;33.70;25.15;;;14.40;45.40;;;;;;5025403;28;20439;-46
2022/03/25 12:38:18;;;;;;;28.70;22.58;;;14.50;46.20;;;;;;5010243;28;20048;-45
2022/03/25 12:40:45;;;;;;;32.42;20.45;;;14.50;46.20;;;;;;5001962;28;20359;-44
2022/03/25 12:43:12;;;;;;;32.22;23.00;;;14.50;46.80;;;;;;4992513;28;20076;-45
2022/03/25 12:45:53;;;;;;;33.20;20.60;;;14.40;44.90;;;;;;5010767;28;20076;-44
2022/03/25 12:48:39;;;;;;;29.05;22.02;;;14.30;45.30;;;;;;5005048;28;20050;-47
2022/03/25 12:51:05;;;;;;;29.98;20.85;;;14.30;45.60;;;;;;5004888;28;20472;-45